sensor_id;sensor_type;location;lat;lon;timestamp;P1;durP1;ratioP1;P2;durP2;ratioP2
22754;SDS011;11544;42.020;23.094;2023-11-19T00:00:08;1.50;;;1.10;;
22754;SDS011;11544;42.020;23.094;2023-11-19T00:02:40;1.27;;;1.17;;
22754;SDS011;11544;42.020;23.094;2023-11-19T00:05:08;1.50;;;1.23;;
22754;SDS011;11544;42.020;23.094;2023-11-19T00:07:38;1.30;;;1.13;;
22754;SDS011;11544;42.020;23.094;2023-11-19T00:10:09;2.58;;;0.90;;
22754;SDS011;11544;42.020;23.094;2023-11-19T00:12:42;1.88;;;1.25;;
22754;SDS011;11544;42.020;23.094;2023-11-19T00:15:11;1.40;;;1.30;;
22754;SDS011;11544;42.020;23.094;2023-11-19T00:17:42;1.00;;;0.90;;
22754;SDS011;11544;42.020;23.094;2023-11-19T00:20:16;1.40;;;1.10;;
22754;SDS011;11544;42.020;23.094;2023-11-19T00:22:46;1.10;;;1.10;;
22754;SDS011;11544;42.020;23.094;2023-11-19T00:25:16;1.67;;;1.40;;
22754;SDS011;11544;42.020;23.094;2023-11-19T00:27:44;1.40;;;1.10;;
22754;SDS011;11544;42.020;23.094;2023-11-19T00:30:11;1.67;;;1.05;;
22754;SDS011;11544;42.020;23.094;2023-11-19T00:32:41;0.95;;;0.77;;
22754;SDS011;11544;42.020;23.094;2023-11-19T00:35:08;1.10;;;1.00;;
22754;SDS011;11544;42.020;23.094;2023-11-19T00:37:38;1.75;;;1.30;;
22754;SDS011;11544;42.020;23.094;2023-11-19T00:40:06;1.08;;;1.05;;
22754;SDS011;11544;42.020;23.094;2023-11-19T00:42:34;1.30;;;1.15;;
22754;SDS011;11544;42.020;23.094;2023-11-19T00:45:01;1.15;;;1.00;;
22754;SDS011;11544;42.020;23.094;2023-11-19T00:47:28;1.30;;;1.20;;
22754;SDS011;11544;42.020;23.094;2023-11-19T00:49:55;1.30;;;1.13;;
22754;SDS011;11544;42.020;23.094;2023-11-19T00:52:22;1.33;;;1.20;;
22754;SDS011;11544;42.020;23.094;2023-11-19T00:54:49;1.17;;;1.08;;
22754;SDS011;11544;42.020;23.094;2023-11-19T00:57:16;1.25;;;1.15;;
22754;SDS011;11544;42.020;23.094;2023-11-19T00:59:43;1.15;;;0.93;;
22754;SDS011;11544;42.020;23.094;2023-11-19T01:02:10;1.50;;;1.40;;
22754;SDS011;11544;42.020;23.094;2023-11-19T01:04:56;2.45;;;1.13;;
22754;SDS011;11544;42.020;23.094;2023-11-19T01:07:59;1.10;;;1.00;;
22754;SDS011;11544;42.020;23.094;2023-11-19T01:11:03;1.75;;;1.10;;
22754;SDS011;11544;42.020;23.094;2023-11-19T01:14:06;1.38;;;1.27;;
22754;SDS011;11544;42.020;23.094;2023-11-19T01:17:09;2.20;;;1.33;;
22754;SDS011;11544;42.020;23.094;2023-11-19T01:20:13;1.48;;;1.15;;
22754;SDS011;11544;42.020;23.094;2023-11-19T01:23:16;1.52;;;1.23;;
22754;SDS011;11544;42.020;23.094;2023-11-19T01:26:19;1.17;;;0.98;;
22754;SDS011;11544;42.020;23.094;2023-11-19T01:29:21;1.30;;;1.00;;
22754;SDS011;11544;42.020;23.094;2023-11-19T01:32:25;3.88;;;1.50;;
22754;SDS011;11544;42.020;23.094;2023-11-19T01:35:28;1.52;;;1.27;;
22754;SDS011;11544;42.020;23.094;2023-11-19T01:38:31;1.13;;;1.02;;
22754;SDS011;11544;42.020;23.094;2023-11-19T01:41:37;1.65;;;1.17;;
22754;SDS011;11544;42.020;23.094;2023-11-19T01:44:40;2.15;;;1.20;;
22754;SDS011;11544;42.020;23.094;2023-11-19T01:47:44;1.75;;;0.93;;
22754;SDS011;11544;42.020;23.094;2023-11-19T01:50:47;2.40;;;1.30;;
22754;SDS011;11544;42.020;23.094;2023-11-19T01:53:49;1.08;;;0.90;;
22754;SDS011;11544;42.020;23.094;2023-11-19T01:56:53;2.60;;;1.30;;
22754;SDS011;11544;42.020;23.094;2023-11-19T01:59:59;1.48;;;1.27;;
22754;SDS011;11544;42.020;23.094;2023-11-19T02:03:03;4.63;;;1.27;;
22754;SDS011;11544;42.020;23.094;2023-11-19T02:06:07;2.30;;;1.27;;
22754;SDS011;11544;42.020;23.094;2023-11-19T02:09:10;1.80;;;1.50;;
22754;SDS011;11544;42.020;23.094;2023-11-19T02:12:13;1.15;;;1.05;;
22754;SDS011;11544;42.020;23.094;2023-11-19T02:15:15;1.77;;;1.30;;
22754;SDS011;11544;42.020;23.094;2023-11-19T02:21:26;1.30;;;1.20;;
22754;SDS011;11544;42.020;23.094;2023-11-19T02:24:29;1.75;;;0.80;;
22754;SDS011;11544;42.020;23.094;2023-11-19T02:27:40;3.17;;;0.93;;
22754;SDS011;11544;42.020;23.094;2023-11-19T02:30:43;3.85;;;1.27;;
22754;SDS011;11544;42.020;23.094;2023-11-19T02:33:47;1.30;;;1.20;;
22754;SDS011;11544;42.020;23.094;2023-11-19T02:36:50;1.30;;;1.20;;
22754;SDS011;11544;42.020;23.094;2023-11-19T02:39:53;1.38;;;1.10;;
22754;SDS011;11544;42.020;23.094;2023-11-19T02:42:57;4.97;;;1.52;;
22754;SDS011;11544;42.020;23.094;2023-11-19T02:46:02;2.47;;;1.40;;
22754;SDS011;11544;42.020;23.094;2023-11-19T02:49:06;2.78;;;1.00;;
22754;SDS011;11544;42.020;23.094;2023-11-19T02:52:16;2.15;;;1.40;;
22754;SDS011;11544;42.020;23.094;2023-11-19T02:55:19;6.72;;;1.88;;
22754;SDS011;11544;42.020;23.094;2023-11-19T02:58:23;8.63;;;1.73;;
22754;SDS011;11544;42.020;23.094;2023-11-19T03:01:26;4.45;;;1.48;;
22754;SDS011;11544;42.020;23.094;2023-11-19T03:04:29;2.38;;;1.33;;
22754;SDS011;11544;42.020;23.094;2023-11-19T03:07:32;2.58;;;1.33;;
22754;SDS011;11544;42.020;23.094;2023-11-19T03:10:35;3.15;;;1.40;;
22754;SDS011;11544;42.020;23.094;2023-11-19T03:13:38;2.38;;;1.52;;
22754;SDS011;11544;42.020;23.094;2023-11-19T03:16:41;12.73;;;1.48;;
22754;SDS011;11544;42.020;23.094;2023-11-19T03:19:47;1.75;;;1.27;;
22754;SDS011;11544;42.020;23.094;2023-11-19T03:22:50;6.57;;;1.38;;
22754;SDS011;11544;42.020;23.094;2023-11-19T03:25:54;5.32;;;1.55;;
22754;SDS011;11544;42.020;23.094;2023-11-19T03:28:57;1.52;;;1.42;;
22754;SDS011;11544;42.020;23.094;2023-11-19T03:32:01;2.83;;;1.30;;
22754;SDS011;11544;42.020;23.094;2023-11-19T03:35:04;5.57;;;1.58;;
22754;SDS011;11544;42.020;23.094;2023-11-19T03:38:08;2.88;;;1.45;;
22754;SDS011;11544;42.020;23.094;2023-11-19T03:41:14;1.88;;;1.30;;
22754;SDS011;11544;42.020;23.094;2023-11-19T03:44:18;4.18;;;1.58;;
22754;SDS011;11544;42.020;23.094;2023-11-19T03:47:21;3.47;;;1.05;;
22754;SDS011;11544;42.020;23.094;2023-11-19T10:08:25;2.85;;;1.67;;
22754;SDS011;11544;42.020;23.094;2023-11-19T10:10:53;3.95;;;1.75;;
22754;SDS011;11544;42.020;23.094;2023-11-19T10:13:20;2.60;;;1.40;;
22754;SDS011;11544;42.020;23.094;2023-11-19T10:15:57;2.65;;;1.50;;
22754;SDS011;11544;42.020;23.094;2023-11-19T10:18:28;3.03;;;1.40;;
22754;SDS011;11544;42.020;23.094;2023-11-19T10:20:54;2.47;;;1.77;;
22754;SDS011;11544;42.020;23.094;2023-11-19T10:23:21;2.90;;;1.63;;
22754;SDS011;11544;42.020;23.094;2023-11-19T10:25:48;2.08;;;1.50;;
22754;SDS011;11544;42.020;23.094;2023-11-19T10:28:19;3.40;;;1.83;;
22754;SDS011;11544;42.020;23.094;2023-11-19T10:30:46;1.60;;;1.48;;
22754;SDS011;11544;42.020;23.094;2023-11-19T10:33:16;2.65;;;1.83;;
22754;SDS011;11544;42.020;23.094;2023-11-19T10:35:51;3.05;;;1.83;;
22754;SDS011;11544;42.020;23.094;2023-11-19T10:38:28;5.72;;;3.03;;
22754;SDS011;11544;42.020;23.094;2023-11-19T10:40:55;2.30;;;1.70;;
22754;SDS011;11544;42.020;23.094;2023-11-19T10:43:22;4.28;;;2.13;;
22754;SDS011;11544;42.020;23.094;2023-11-19T10:45:50;3.95;;;2.10;;
22754;SDS011;11544;42.020;23.094;2023-11-19T10:48:17;5.03;;;2.50;;
22754;SDS011;11544;42.020;23.094;2023-11-19T10:50:49;2.30;;;1.58;;
22754;SDS011;11544;42.020;23.094;2023-11-19T10:53:21;2.95;;;2.10;;
22754;SDS011;11544;42.020;23.094;2023-11-19T10:55:49;2.75;;;1.60;;
22754;SDS011;11544;42.020;23.094;2023-11-19T10:58:17;2.72;;;1.80;;
22754;SDS011;11544;42.020;23.094;2023-11-19T11:00:46;2.30;;;1.48;;
22754;SDS011;11544;42.020;23.094;2023-11-19T11:03:21;2.53;;;1.77;;
22754;SDS011;11544;42.020;23.094;2023-11-19T11:05:52;2.10;;;1.65;;
22754;SDS011;11544;42.020;23.094;2023-11-19T11:08:20;3.75;;;1.95;;
22754;SDS011;11544;42.020;23.094;2023-11-19T11:10:54;2.13;;;1.50;;
22754;SDS011;11544;42.020;23.094;2023-11-19T11:13:24;4.00;;;2.35;;
22754;SDS011;11544;42.020;23.094;2023-11-19T11:15:53;4.53;;;2.70;;
22754;SDS011;11544;42.020;23.094;2023-11-19T11:18:24;2.85;;;1.27;;
22754;SDS011;11544;42.020;23.094;2023-11-19T11:21:25;2.00;;;1.55;;
22754;SDS011;11544;42.020;23.094;2023-11-19T11:35:15;3.78;;;2.35;;
22754;SDS011;11544;42.020;23.094;2023-11-19T11:38:08;5.43;;;2.65;;
22754;SDS011;11544;42.020;23.094;2023-11-19T11:40:36;2.72;;;1.98;;
22754;SDS011;11544;42.020;23.094;2023-11-19T11:43:43;3.30;;;2.00;;
22754;SDS011;11544;42.020;23.094;2023-11-19T11:49:06;2.90;;;1.83;;
22754;SDS011;11544;42.020;23.094;2023-11-19T11:57:02;3.70;;;1.95;;
22754;SDS011;11544;42.020;23.094;2023-11-19T12:02:15;1.95;;;1.73;;
22754;SDS011;11544;42.020;23.094;2023-11-19T12:04:46;2.05;;;1.58;;
22754;SDS011;11544;42.020;23.094;2023-11-19T12:07:18;2.38;;;1.30;;
22754;SDS011;11544;42.020;23.094;2023-11-19T12:09:51;3.30;;;2.28;;
22754;SDS011;11544;42.020;23.094;2023-11-19T12:12:39;2.22;;;2.03;;
22754;SDS011;11544;42.020;23.094;2023-11-19T12:15:08;2.22;;;1.63;;
22754;SDS011;11544;42.020;23.094;2023-11-19T12:17:37;2.00;;;1.75;;
22754;SDS011;11544;42.020;23.094;2023-11-19T12:20:31;4.32;;;2.08;;
22754;SDS011;11544;42.020;23.094;2023-11-19T12:23:04;3.25;;;2.30;;
22754;SDS011;11544;42.020;23.094;2023-11-19T12:25:33;3.88;;;1.70;;
22754;SDS011;11544;42.020;23.094;2023-11-19T12:28:01;3.45;;;2.67;;
22754;SDS011;11544;42.020;23.094;2023-11-19T12:30:31;2.13;;;1.92;;
22754;SDS011;11544;42.020;23.094;2023-11-19T12:32:59;2.47;;;2.20;;
22754;SDS011;11544;42.020;23.094;2023-11-19T12:35:26;2.53;;;1.83;;
22754;SDS011;11544;42.020;23.094;2023-11-19T12:37:52;2.25;;;1.50;;
22754;SDS011;11544;42.020;23.094;2023-11-19T12:40:20;3.80;;;1.60;;
22754;SDS011;11544;42.020;23.094;2023-11-19T12:42:49;2.22;;;1.60;;
22754;SDS011;11544;42.020;23.094;2023-11-19T12:45:20;2.22;;;1.40;;
22754;SDS011;11544;42.020;23.094;2023-11-19T12:47:48;2.05;;;1.42;;
22754;SDS011;11544;42.020;23.094;2023-11-19T12:50:16;3.47;;;2.17;;
22754;SDS011;11544;42.020;23.094;2023-11-19T12:52:57;1.55;;;1.38;;
22754;SDS011;11544;42.020;23.094;2023-11-19T12:55:25;2.25;;;1.50;;
22754;SDS011;11544;42.020;23.094;2023-11-19T12:57:56;2.22;;;1.83;;
22754;SDS011;11544;42.020;23.094;2023-11-19T13:00:25;3.00;;;1.73;;
22754;SDS011;11544;42.020;23.094;2023-11-19T13:02:54;2.88;;;1.77;;
22754;SDS011;11544;42.020;23.094;2023-11-19T13:08:01;2.47;;;1.60;;
22754;SDS011;11544;42.020;23.094;2023-11-19T13:10:33;2.83;;;1.67;;
22754;SDS011;11544;42.020;23.094;2023-11-19T13:13:16;3.75;;;2.40;;
22754;SDS011;11544;42.020;23.094;2023-11-19T13:15:43;3.22;;;1.83;;
22754;SDS011;11544;42.020;23.094;2023-11-19T13:18:11;2.10;;;1.77;;
22754;SDS011;11544;42.020;23.094;2023-11-19T13:20:38;2.70;;;2.05;;
22754;SDS011;11544;42.020;23.094;2023-11-19T13:23:06;3.38;;;1.65;;
22754;SDS011;11544;42.020;23.094;2023-11-19T13:25:37;5.32;;;2.10;;
22754;SDS011;11544;42.020;23.094;2023-11-19T13:28:04;3.58;;;1.90;;
22754;SDS011;11544;42.020;23.094;2023-11-19T13:30:32;8.70;;;2.33;;
22754;SDS011;11544;42.020;23.094;2023-11-19T13:32:59;2.97;;;1.92;;
22754;SDS011;11544;42.020;23.094;2023-11-19T13:35:27;2.40;;;1.90;;
22754;SDS011;11544;42.020;23.094;2023-11-19T13:37:54;5.30;;;2.25;;
22754;SDS011;11544;42.020;23.094;2023-11-19T13:40:21;2.83;;;1.85;;
22754;SDS011;11544;42.020;23.094;2023-11-19T13:42:50;7.32;;;2.20;;
22754;SDS011;11544;42.020;23.094;2023-11-19T13:45:17;4.30;;;2.38;;
22754;SDS011;11544;42.020;23.094;2023-11-19T13:47:46;3.88;;;1.85;;
22754;SDS011;11544;42.020;23.094;2023-11-19T13:50:14;2.95;;;2.00;;
22754;SDS011;11544;42.020;23.094;2023-11-19T13:52:43;3.45;;;2.47;;
22754;SDS011;11544;42.020;23.094;2023-11-19T13:55:13;4.20;;;2.60;;
22754;SDS011;11544;42.020;23.094;2023-11-19T13:57:41;5.13;;;2.67;;
22754;SDS011;11544;42.020;23.094;2023-11-19T14:00:09;5.18;;;2.30;;
22754;SDS011;11544;42.020;23.094;2023-11-19T14:02:43;2.88;;;2.05;;
22754;SDS011;11544;42.020;23.094;2023-11-19T14:05:10;3.58;;;2.20;;
22754;SDS011;11544;42.020;23.094;2023-11-19T14:07:37;4.40;;;2.58;;
22754;SDS011;11544;42.020;23.094;2023-11-19T14:10:05;3.33;;;2.60;;
22754;SDS011;11544;42.020;23.094;2023-11-19T14:12:33;10.15;;;5.43;;
22754;SDS011;11544;42.020;23.094;2023-11-19T14:15:00;4.95;;;2.92;;
22754;SDS011;11544;42.020;23.094;2023-11-19T14:17:27;7.55;;;4.20;;
22754;SDS011;11544;42.020;23.094;2023-11-19T14:19:54;4.65;;;2.97;;
22754;SDS011;11544;42.020;23.094;2023-11-19T14:22:21;6.95;;;2.83;;
22754;SDS011;11544;42.020;23.094;2023-11-19T14:24:48;6.53;;;3.63;;
22754;SDS011;11544;42.020;23.094;2023-11-19T14:27:15;6.15;;;3.13;;
22754;SDS011;11544;42.020;23.094;2023-11-19T14:29:43;12.50;;;6.70;;
22754;SDS011;11544;42.020;23.094;2023-11-19T14:32:11;8.98;;;4.53;;
22754;SDS011;11544;42.020;23.094;2023-11-19T14:34:38;7.45;;;4.35;;
22754;SDS011;11544;42.020;23.094;2023-11-19T14:37:05;8.35;;;4.32;;
22754;SDS011;11544;42.020;23.094;2023-11-19T14:39:33;6.72;;;4.07;;
22754;SDS011;11544;42.020;23.094;2023-11-19T14:42:00;4.63;;;3.03;;
22754;SDS011;11544;42.020;23.094;2023-11-19T14:44:31;3.72;;;3.00;;
22754;SDS011;11544;42.020;23.094;2023-11-19T14:46:58;6.13;;;3.50;;
22754;SDS011;11544;42.020;23.094;2023-11-19T14:49:25;5.70;;;3.58;;
22754;SDS011;11544;42.020;23.094;2023-11-19T14:51:53;5.45;;;3.70;;
22754;SDS011;11544;42.020;23.094;2023-11-19T14:54:20;5.38;;;3.67;;
22754;SDS011;11544;42.020;23.094;2023-11-19T14:56:47;5.03;;;3.50;;
